sensor_id;sensor_type;location;lat;lon;timestamp;pressure;altitude;pressure_sealevel;temperature;humidity
32243;BME280;18731;42.830;24.390;2023-08-08T03:00:14;94531.19;;;16.10;83.98
32243;BME280;18731;42.830;24.390;2023-08-08T03:02:39;94525.84;;;16.13;84.34
32243;BME280;18731;42.830;24.390;2023-08-08T03:05:05;94542.00;;;16.13;84.66
32243;BME280;18731;42.830;24.390;2023-08-08T03:07:31;94539.69;;;16.12;84.31
32243;BME280;18731;42.830;24.390;2023-08-08T03:09:57;94520.19;;;15.95;84.95
32243;BME280;18731;42.830;24.390;2023-08-08T03:12:22;94542.56;;;15.99;84.86
32243;BME280;18731;42.830;24.390;2023-08-08T03:14:48;94541.13;;;16.05;85.17
32243;BME280;18731;42.830;24.390;2023-08-08T03:17:13;94536.41;;;15.99;84.96
32243;BME280;18731;42.830;24.390;2023-08-08T03:19:39;94508.91;;;15.86;85.15
32243;BME280;18731;42.830;24.390;2023-08-08T03:22:05;94548.59;;;16.16;84.58
32243;BME280;18731;42.830;24.390;2023-08-08T03:24:30;94544.34;;;16.15;84.50
32243;BME280;18731;42.830;24.390;2023-08-08T03:26:56;94531.97;;;16.10;84.32
32243;BME280;18731;42.830;24.390;2023-08-08T03:29:21;94567.66;;;16.30;84.74
32243;BME280;18731;42.830;24.390;2023-08-08T03:31:47;94551.44;;;16.26;84.35
32243;BME280;18731;42.830;24.390;2023-08-08T03:34:13;94518.44;;;16.06;83.11
32243;BME280;18731;42.830;24.390;2023-08-08T03:36:38;94512.66;;;16.04;83.51
32243;BME280;18731;42.830;24.390;2023-08-08T03:39:04;94561.72;;;16.44;83.52
32243;BME280;18731;42.830;24.390;2023-08-08T03:41:29;94563.38;;;16.52;83.57
32243;BME280;18731;42.830;24.390;2023-08-08T03:43:55;94566.53;;;16.57;83.42
32243;BME280;18731;42.830;24.390;2023-08-08T03:46:22;94568.50;;;16.60;82.99
32243;BME280;18731;42.830;24.390;2023-08-08T03:48:47;94575.94;;;16.44;82.39
32243;BME280;18731;42.830;24.390;2023-08-08T03:51:13;94583.41;;;16.28;83.79
32243;BME280;18731;42.830;24.390;2023-08-08T03:53:39;94588.16;;;16.12;84.33
32243;BME280;18731;42.830;24.390;2023-08-08T03:56:04;94593.66;;;16.19;84.28
32243;BME280;18731;42.830;24.390;2023-08-08T03:58:30;94589.59;;;16.05;85.28
32243;BME280;18731;42.830;24.390;2023-08-08T04:00:56;94596.53;;;16.06;85.95
32243;BME280;18731;42.830;24.390;2023-08-08T04:03:22;94591.84;;;16.03;86.11
32243;BME280;18731;42.830;24.390;2023-08-08T04:05:47;94572.47;;;15.94;86.31
32243;BME280;18731;42.830;24.390;2023-08-08T04:08:16;94587.19;;;16.00;86.35
32243;BME280;18731;42.830;24.390;2023-08-08T04:10:43;94604.19;;;16.04;86.28
32243;BME280;18731;42.830;24.390;2023-08-08T04:13:09;94616.31;;;15.95;87.09
32243;BME280;18731;42.830;24.390;2023-08-08T04:15:36;94605.63;;;15.98;86.83
32243;BME280;18731;42.830;24.390;2023-08-08T04:18:01;94603.56;;;15.92;87.36
32243;BME280;18731;42.830;24.390;2023-08-08T04:20:27;94587.13;;;15.97;87.71
32243;BME280;18731;42.830;24.390;2023-08-08T04:22:53;94609.97;;;16.06;87.63
32243;BME280;18731;42.830;24.390;2023-08-08T04:25:18;94605.44;;;15.88;87.17
32243;BME280;18731;42.830;24.390;2023-08-08T04:27:46;94610.97;;;15.75;87.17
32243;BME280;18731;42.830;24.390;2023-08-08T04:30:12;94617.50;;;15.74;87.02
32243;BME280;18731;42.830;24.390;2023-08-08T04:32:37;94627.03;;;15.91;86.57
32243;BME280;18731;42.830;24.390;2023-08-08T04:35:03;94637.91;;;15.98;86.58
32243;BME280;18731;42.830;24.390;2023-08-08T04:37:29;94636.56;;;16.08;86.50
32243;BME280;18731;42.830;24.390;2023-08-08T04:39:55;94630.63;;;15.99;87.36
32243;BME280;18731;42.830;24.390;2023-08-08T04:42:20;94628.59;;;15.92;87.50
32243;BME280;18731;42.830;24.390;2023-08-08T04:44:46;94623.66;;;15.75;86.57
32243;BME280;18731;42.830;24.390;2023-08-08T04:47:11;94639.94;;;15.82;86.66
32243;BME280;18731;42.830;24.390;2023-08-08T04:49:37;94616.53;;;15.63;85.76
32243;BME280;18731;42.830;24.390;2023-08-08T04:52:03;94625.22;;;15.76;85.99
32243;BME280;18731;42.830;24.390;2023-08-08T04:54:29;94627.19;;;15.79;85.65
32243;BME280;18731;42.830;24.390;2023-08-08T04:56:55;94640.19;;;15.96;84.95
32243;BME280;18731;42.830;24.390;2023-08-08T04:59:20;94645.69;;;16.03;85.42
32243;BME280;18731;42.830;24.390;2023-08-08T05:01:46;94632.84;;;15.93;85.30
32243;BME280;18731;42.830;24.390;2023-08-08T05:04:12;94657.44;;;16.15;85.11
32243;BME280;18731;42.830;24.390;2023-08-08T05:06:37;94649.78;;;16.17;86.21
32243;BME280;18731;42.830;24.390;2023-08-08T05:09:03;94655.94;;;16.40;86.11
32243;BME280;18731;42.830;24.390;2023-08-08T05:11:29;94643.06;;;16.30;85.02
32243;BME280;18731;42.830;24.390;2023-08-08T05:13:54;94673.34;;;16.46;84.83
32243;BME280;18731;42.830;24.390;2023-08-08T05:16:20;94670.97;;;16.41;84.97
32243;BME280;18731;42.830;24.390;2023-08-08T05:18:45;94671.78;;;16.45;84.44
32243;BME280;18731;42.830;24.390;2023-08-08T05:21:11;94668.69;;;16.43;84.83
32243;BME280;18731;42.830;24.390;2023-08-08T05:23:37;94672.28;;;16.51;84.96
32243;BME280;18731;42.830;24.390;2023-08-08T05:26:03;94672.34;;;16.54;84.52
32243;BME280;18731;42.830;24.390;2023-08-08T05:28:29;94617.09;;;16.18;84.52
32243;BME280;18731;42.830;24.390;2023-08-08T05:30:54;94663.06;;;16.29;84.64
32243;BME280;18731;42.830;24.390;2023-08-08T05:33:20;94656.53;;;16.07;85.28
32243;BME280;18731;42.830;24.390;2023-08-08T05:35:45;94690.34;;;16.04;84.25
32243;BME280;18731;42.830;24.390;2023-08-08T05:38:11;94686.44;;;16.02;85.77
32243;BME280;18731;42.830;24.390;2023-08-08T05:40:36;94687.75;;;15.89;85.67
32243;BME280;18731;42.830;24.390;2023-08-08T05:43:03;94686.81;;;16.00;86.15
32243;BME280;18731;42.830;24.390;2023-08-08T05:45:29;94689.75;;;16.15;86.65
32243;BME280;18731;42.830;24.390;2023-08-08T05:47:54;94702.25;;;16.26;85.73
32243;BME280;18731;42.830;24.390;2023-08-08T05:50:22;94687.59;;;16.24;86.07
32243;BME280;18731;42.830;24.390;2023-08-08T05:52:47;94663.78;;;16.26;84.48
32243;BME280;18731;42.830;24.390;2023-08-08T05:55:13;94692.28;;;16.27;81.91
32243;BME280;18731;42.830;24.390;2023-08-08T05:57:39;94710.75;;;16.28;79.95
32243;BME280;18731;42.830;24.390;2023-08-08T06:00:05;94711.84;;;16.24;79.33
32243;BME280;18731;42.830;24.390;2023-08-08T06:02:33;94710.44;;;16.11;78.33
32243;BME280;18731;42.830;24.390;2023-08-08T06:04:59;94713.75;;;16.23;80.88
32243;BME280;18731;42.830;24.390;2023-08-08T06:07:24;94710.00;;;16.28;84.44
32243;BME280;18731;42.830;24.390;2023-08-08T06:09:50;94703.28;;;16.41;82.97
32243;BME280;18731;42.830;24.390;2023-08-08T06:12:16;94716.53;;;16.73;81.41
32243;BME280;18731;42.830;24.390;2023-08-08T06:14:41;94695.69;;;16.69;79.27
32243;BME280;18731;42.830;24.390;2023-08-08T06:17:07;94694.94;;;16.95;77.05
32243;BME280;18731;42.830;24.390;2023-08-08T06:19:33;94674.66;;;17.05;76.16
32243;BME280;18731;42.830;24.390;2023-08-08T06:21:58;94701.88;;;17.53;77.13
32243;BME280;18731;42.830;24.390;2023-08-08T06:24:24;94682.44;;;17.40;74.80
32243;BME280;18731;42.830;24.390;2023-08-08T06:26:49;94683.59;;;17.69;71.02
32243;BME280;18731;42.830;24.390;2023-08-08T06:29:15;94706.69;;;17.96;70.09
32243;BME280;18731;42.830;24.390;2023-08-08T06:31:40;94712.56;;;18.06;70.54
32243;BME280;18731;42.830;24.390;2023-08-08T06:34:07;94711.50;;;18.14;69.14
32243;BME280;18731;42.830;24.390;2023-08-08T06:36:32;94708.22;;;18.31;69.87
32243;BME280;18731;42.830;24.390;2023-08-08T06:38:58;94702.47;;;18.36;68.89
32243;BME280;18731;42.830;24.390;2023-08-08T06:41:23;94697.09;;;18.36;67.79
32243;BME280;18731;42.830;24.390;2023-08-08T06:43:49;94693.69;;;18.46;68.66
32243;BME280;18731;42.830;24.390;2023-08-08T06:46:14;94690.00;;;18.61;69.14
32243;BME280;18731;42.830;24.390;2023-08-08T06:48:42;94697.78;;;18.70;70.61
32243;BME280;18731;42.830;24.390;2023-08-08T06:51:08;94675.34;;;18.62;68.99
32243;BME280;18731;42.830;24.390;2023-08-08T06:53:33;94688.53;;;18.71;70.04
32243;BME280;18731;42.830;24.390;2023-08-08T06:55:59;94709.50;;;18.85;66.64
32243;BME280;18731;42.830;24.390;2023-08-08T06:58:24;94704.50;;;18.87;66.20
32243;BME280;18731;42.830;24.390;2023-08-08T07:00:50;94705.28;;;18.91;66.92
32243;BME280;18731;42.830;24.390;2023-08-08T07:03:16;94711.16;;;19.00;65.71
32243;BME280;18731;42.830;24.390;2023-08-08T07:05:41;94714.38;;;19.20;66.83
32243;BME280;18731;42.830;24.390;2023-08-08T07:08:07;94708.19;;;19.19;67.52
32243;BME280;18731;42.830;24.390;2023-08-08T07:10:35;94684.09;;;19.00;65.38
32243;BME280;18731;42.830;24.390;2023-08-08T07:13:01;94712.13;;;19.33;65.61
32243;BME280;18731;42.830;24.390;2023-08-08T07:15:26;94718.00;;;19.42;63.85
32243;BME280;18731;42.830;24.390;2023-08-08T07:17:53;94695.09;;;19.28;62.48
32243;BME280;18731;42.830;24.390;2023-08-08T07:20:19;94704.47;;;19.45;62.08
32243;BME280;18731;42.830;24.390;2023-08-08T07:22:45;94701.84;;;19.56;62.36
32243;BME280;18731;42.830;24.390;2023-08-08T07:25:10;94703.44;;;19.64;63.78
32243;BME280;18731;42.830;24.390;2023-08-08T07:27:37;94706.25;;;19.89;60.07
32243;BME280;18731;42.830;24.390;2023-08-08T07:30:04;94705.13;;;20.01;60.03
32243;BME280;18731;42.830;24.390;2023-08-08T07:32:32;94692.50;;;20.62;62.02
32243;BME280;18731;42.830;24.390;2023-08-08T07:34:58;94705.69;;;20.95;54.65
32243;BME280;18731;42.830;24.390;2023-08-08T07:37:26;94689.78;;;20.76;52.04
32243;BME280;18731;42.830;24.390;2023-08-08T07:39:52;94694.81;;;20.60;54.24
32243;BME280;18731;42.830;24.390;2023-08-08T07:42:18;94687.06;;;20.54;54.78
32243;BME280;18731;42.830;24.390;2023-08-08T07:44:43;94665.28;;;20.15;59.02
32243;BME280;18731;42.830;24.390;2023-08-08T07:47:09;94696.25;;;20.11;56.84
32243;BME280;18731;42.830;24.390;2023-08-08T07:49:35;94681.59;;;20.30;56.25
32243;BME280;18731;42.830;24.390;2023-08-08T07:52:00;94686.28;;;20.47;52.09
32243;BME280;18731;42.830;24.390;2023-08-08T07:54:26;94678.47;;;20.24;57.13
32243;BME280;18731;42.830;24.390;2023-08-08T07:56:51;94670.69;;;20.05;56.04
32243;BME280;18731;42.830;24.390;2023-08-08T07:59:17;94665.31;;;20.26;57.14
32243;BME280;18731;42.830;24.390;2023-08-08T08:01:43;94674.69;;;20.82;52.76
32243;BME280;18731;42.830;24.390;2023-08-08T08:04:08;94694.03;;;21.41;49.73
32243;BME280;18731;42.830;24.390;2023-08-08T08:06:34;94686.69;;;21.24;48.08
32243;BME280;18731;42.830;24.390;2023-08-08T08:09:00;94690.97;;;20.93;51.05
32243;BME280;18731;42.830;24.390;2023-08-08T08:11:25;94696.38;;;21.03;52.23
32243;BME280;18731;42.830;24.390;2023-08-08T08:13:51;94692.50;;;21.26;48.90
32243;BME280;18731;42.830;24.390;2023-08-08T08:16:16;94687.84;;;21.26;50.74
32243;BME280;18731;42.830;24.390;2023-08-08T08:18:42;94670.00;;;21.22;49.59
32243;BME280;18731;42.830;24.390;2023-08-08T08:21:07;94671.56;;;21.15;51.46
32243;BME280;18731;42.830;24.390;2023-08-08T08:23:33;94663.44;;;20.73;52.44
32243;BME280;18731;42.830;24.390;2023-08-08T08:25:59;94693.31;;;20.87;53.82
32243;BME280;18731;42.830;24.390;2023-08-08T08:28:25;94696.41;;;20.85;52.80
32243;BME280;18731;42.830;24.390;2023-08-08T08:30:51;94692.81;;;20.28;53.05
32243;BME280;18731;42.830;24.390;2023-08-08T08:33:16;94696.00;;;20.94;51.69
32243;BME280;18731;42.830;24.390;2023-08-08T08:35:42;94696.75;;;20.77;50.38
32243;BME280;18731;42.830;24.390;2023-08-08T08:38:08;94691.34;;;20.91;49.41
32243;BME280;18731;42.830;24.390;2023-08-08T08:40:36;94694.47;;;21.00;53.69
32243;BME280;18731;42.830;24.390;2023-08-08T08:43:04;94692.88;;;20.78;50.31
32243;BME280;18731;42.830;24.390;2023-08-08T08:45:30;94687.88;;;20.87;50.15
32243;BME280;18731;42.830;24.390;2023-08-08T08:47:56;94687.88;;;21.01;51.64
32243;BME280;18731;42.830;24.390;2023-08-08T08:50:27;94671.56;;;21.15;50.70
32243;BME280;18731;42.830;24.390;2023-08-08T08:52:55;94686.28;;;21.36;49.31
32243;BME280;18731;42.830;24.390;2023-08-08T08:55:22;94686.22;;;21.57;49.85
32243;BME280;18731;42.830;24.390;2023-08-08T08:57:49;94687.81;;;21.44;48.51
32243;BME280;18731;42.830;24.390;2023-08-08T09:00:16;94675.84;;;21.24;48.03
32243;BME280;18731;42.830;24.390;2023-08-08T09:02:41;94670.03;;;20.97;50.44
32243;BME280;18731;42.830;24.390;2023-08-08T09:05:08;94676.59;;;20.57;49.93
32243;BME280;18731;42.830;24.390;2023-08-08T09:07:35;94700.38;;;19.69;53.25
32243;BME280;18731;42.830;24.390;2023-08-08T09:10:02;94702.13;;;19.40;54.47
32243;BME280;18731;42.830;24.390;2023-08-08T09:12:29;94689.25;;;19.19;55.11
32243;BME280;18731;42.830;24.390;2023-08-08T09:14:57;94708.31;;;19.41;55.16
32243;BME280;18731;42.830;24.390;2023-08-08T09:17:27;94697.47;;;19.37;56.17
32243;BME280;18731;42.830;24.390;2023-08-08T09:19:55;94693.19;;;19.33;53.94
32243;BME280;18731;42.830;24.390;2023-08-08T09:22:21;94660.94;;;19.03;54.26
32243;BME280;18731;42.830;24.390;2023-08-08T09:24:47;94694.19;;;19.07;53.86
32243;BME280;18731;42.830;24.390;2023-08-08T09:27:13;94705.03;;;19.10;54.81
32243;BME280;18731;42.830;24.390;2023-08-08T09:29:40;94705.53;;;19.26;55.04
32243;BME280;18731;42.830;24.390;2023-08-08T09:32:06;94704.47;;;19.42;56.50
32243;BME280;18731;42.830;24.390;2023-08-08T09:34:32;94699.19;;;19.63;52.47
32243;BME280;18731;42.830;24.390;2023-08-08T09:36:59;94695.44;;;20.00;50.85
32243;BME280;18731;42.830;24.390;2023-08-08T09:39:26;94683.88;;;20.20;51.74
32243;BME280;18731;42.830;24.390;2023-08-08T09:41:51;94682.34;;;20.30;50.27
32243;BME280;18731;42.830;24.390;2023-08-08T09:44:17;94704.75;;;20.09;49.61
32243;BME280;18731;42.830;24.390;2023-08-08T09:46:43;94687.34;;;20.07;51.80
32243;BME280;18731;42.830;24.390;2023-08-08T09:49:12;94676.91;;;20.16;50.70
32243;BME280;18731;42.830;24.390;2023-08-08T09:51:39;94677.78;;;20.73;52.01
32243;BME280;18731;42.830;24.390;2023-08-08T09:54:05;94685.50;;;21.39;47.25
32243;BME280;18731;42.830;24.390;2023-08-08T09:56:33;94668.22;;;21.92;47.88
32243;BME280;18731;42.830;24.390;2023-08-08T09:59:00;94673.03;;;21.59;44.13
32243;BME280;18731;42.830;24.390;2023-08-08T10:01:27;94669.22;;;21.21;44.97
32243;BME280;18731;42.830;24.390;2023-08-08T10:03:52;94670.78;;;21.29;46.41
32243;BME280;18731;42.830;24.390;2023-08-08T10:06:18;94662.63;;;21.33;47.61
32243;BME280;18731;42.830;24.390;2023-08-08T10:08:45;94674.97;;;21.55;45.68
32243;BME280;18731;42.830;24.390;2023-08-08T10:11:11;94675.75;;;21.59;45.99
32243;BME280;18731;42.830;24.390;2023-08-08T10:13:47;94673.47;;;21.40;46.88
32243;BME280;18731;42.830;24.390;2023-08-08T10:16:15;94680.84;;;21.22;45.92
32243;BME280;18731;42.830;24.390;2023-08-08T10:18:41;94683.59;;;20.79;47.38
32243;BME280;18731;42.830;24.390;2023-08-08T10:21:06;94660.75;;;20.91;49.01
32243;BME280;18731;42.830;24.390;2023-08-08T10:23:38;94677.78;;;21.02;48.08
32243;BME280;18731;42.830;24.390;2023-08-08T10:26:06;94685.53;;;21.03;46.53
32243;BME280;18731;42.830;24.390;2023-08-08T10:28:53;94674.66;;;21.21;46.68
32243;BME280;18731;42.830;24.390;2023-08-08T10:31:20;94660.63;;;21.51;46.76
32243;BME280;18731;42.830;24.390;2023-08-08T10:33:46;94678.38;;;21.80;47.68
32243;BME280;18731;42.830;24.390;2023-08-08T10:36:12;94660.59;;;21.65;44.71
32243;BME280;18731;42.830;24.390;2023-08-08T10:38:46;94674.81;;;21.98;45.11
32243;BME280;18731;42.830;24.390;2023-08-08T10:41:21;94670.91;;;22.06;46.78
32243;BME280;18731;42.830;24.390;2023-08-08T10:43:57;94661.97;;;22.09;44.45
32243;BME280;18731;42.830;24.390;2023-08-08T10:46:31;94666.56;;;22.19;44.01
32243;BME280;18731;42.830;24.390;2023-08-08T10:48:59;94667.03;;;22.00;43.00
32243;BME280;18731;42.830;24.390;2023-08-08T10:51:38;94654.97;;;22.08;44.06
32243;BME280;18731;42.830;24.390;2023-08-08T10:54:12;94661.88;;;22.23;45.28
32243;BME280;18731;42.830;24.390;2023-08-08T10:56:40;94671.59;;;22.21;44.03
32243;BME280;18731;42.830;24.390;2023-08-08T10:59:21;94667.06;;;21.93;42.57
32243;BME280;18731;42.830;24.390;2023-08-08T11:01:48;94650.47;;;21.69;44.20
32243;BME280;18731;42.830;24.390;2023-08-08T11:04:18;94662.97;;;21.49;42.86
32243;BME280;18731;42.830;24.390;2023-08-08T11:06:44;94672.94;;;21.84;44.03
32243;BME280;18731;42.830;24.390;2023-08-08T11:09:10;94650.72;;;22.00;41.00
32243;BME280;18731;42.830;24.390;2023-08-08T11:11:37;94653.19;;;22.42;41.16
32243;BME280;18731;42.830;24.390;2023-08-08T11:14:11;94654.59;;;22.65;42.29
32243;BME280;18731;42.830;24.390;2023-08-08T11:16:37;94652.13;;;22.85;41.30
32243;BME280;18731;42.830;24.390;2023-08-08T11:19:04;94663.84;;;23.19;41.32
32243;BME280;18731;42.830;24.390;2023-08-08T11:21:30;94659.19;;;23.20;40.81
32243;BME280;18731;42.830;24.390;2023-08-08T11:23:58;94660.72;;;23.21;42.62
32243;BME280;18731;42.830;24.390;2023-08-08T11:26:23;94653.97;;;23.36;41.41
32243;BME280;18731;42.830;24.390;2023-08-08T11:28:51;94660.44;;;23.12;40.32
32243;BME280;18731;42.830;24.390;2023-08-08T11:31:21;94659.69;;;23.07;41.56
32243;BME280;18731;42.830;24.390;2023-08-08T11:33:48;94643.00;;;23.05;39.96
32243;BME280;18731;42.830;24.390;2023-08-08T11:36:14;94646.94;;;23.38;39.00
32243;BME280;18731;42.830;24.390;2023-08-08T11:38:41;94638.91;;;23.65;37.44
32243;BME280;18731;42.830;24.390;2023-08-08T11:41:13;94632.25;;;23.97;39.95
32243;BME280;18731;42.830;24.390;2023-08-08T11:43:40;94640.75;;;24.33;39.61
32243;BME280;18731;42.830;24.390;2023-08-08T11:46:11;94624.97;;;24.17;37.94
32243;BME280;18731;42.830;24.390;2023-08-08T11:48:37;94621.59;;;23.79;39.69
32243;BME280;18731;42.830;24.390;2023-08-08T11:51:07;94630.63;;;24.03;38.84
32243;BME280;18731;42.830;24.390;2023-08-08T11:53:34;94632.41;;;24.44;38.16
32243;BME280;18731;42.830;24.390;2023-08-08T11:56:01;94623.88;;;24.65;36.90
32243;BME280;18731;42.830;24.390;2023-08-08T11:58:29;94620.91;;;24.56;37.41
32243;BME280;18731;42.830;24.390;2023-08-08T12:00:56;94620.78;;;24.63;35.68
32243;BME280;18731;42.830;24.390;2023-08-08T12:03:24;94601.63;;;24.16;36.84
32243;BME280;18731;42.830;24.390;2023-08-08T12:05:51;94613.69;;;24.15;39.32
32243;BME280;18731;42.830;24.390;2023-08-08T12:08:18;94618.38;;;23.88;40.04
32243;BME280;18731;42.830;24.390;2023-08-08T12:10:51;94610.16;;;24.18;39.83
32243;BME280;18731;42.830;24.390;2023-08-08T12:13:22;94617.09;;;23.96;39.49
32243;BME280;18731;42.830;24.390;2023-08-08T12:15:49;94617.34;;;24.35;39.98
32243;BME280;18731;42.830;24.390;2023-08-08T12:18:18;94591.78;;;24.22;38.69
32243;BME280;18731;42.830;24.390;2023-08-08T12:20:44;94612.38;;;23.69;40.55
32243;BME280;18731;42.830;24.390;2023-08-08T12:23:11;94554.22;;;23.49;39.66
32243;BME280;18731;42.830;24.390;2023-08-08T12:25:37;94607.88;;;24.13;39.15
32243;BME280;18731;42.830;24.390;2023-08-08T12:28:03;94582.63;;;24.09;39.03
32243;BME280;18731;42.830;24.390;2023-08-08T12:30:30;94593.47;;;23.86;39.70
32243;BME280;18731;42.830;24.390;2023-08-08T12:32:56;94579.84;;;24.13;41.68
32243;BME280;18731;42.830;24.390;2023-08-08T12:35:22;94589.06;;;24.22;37.65
32243;BME280;18731;42.830;24.390;2023-08-08T12:37:48;94613.47;;;23.76;39.71
32243;BME280;18731;42.830;24.390;2023-08-08T12:40:13;94617.09;;;23.28;39.02
32243;BME280;18731;42.830;24.390;2023-08-08T12:42:39;94614.22;;;23.42;40.25
32243;BME280;18731;42.830;24.390;2023-08-08T12:45:06;94603.34;;;23.38;38.89
32243;BME280;18731;42.830;24.390;2023-08-08T12:47:32;94620.25;;;23.23;39.67
32243;BME280;18731;42.830;24.390;2023-08-08T12:50:02;94611.84;;;23.48;40.01
32243;BME280;18731;42.830;24.390;2023-08-08T12:52:28;94611.47;;;23.80;39.40
32243;BME280;18731;42.830;24.390;2023-08-08T12:54:54;94575.03;;;23.66;36.96
32243;BME280;18731;42.830;24.390;2023-08-08T12:57:21;94614.81;;;23.91;39.24
32243;BME280;18731;42.830;24.390;2023-08-08T12:59:46;94603.59;;;23.85;39.72
32243;BME280;18731;42.830;24.390;2023-08-08T13:02:12;94613.19;;;23.66;39.49
32243;BME280;18731;42.830;24.390;2023-08-08T13:04:38;94618.78;;;23.56;41.08
32243;BME280;18731;42.830;24.390;2023-08-08T13:07:03;94595.75;;;23.60;39.96
32243;BME280;18731;42.830;24.390;2023-08-08T13:09:29;94607.16;;;23.48;40.39
32243;BME280;18731;42.830;24.390;2023-08-08T13:11:55;94610.88;;;22.90;40.91
32243;BME280;18731;42.830;24.390;2023-08-08T13:14:21;94606.81;;;23.05;40.79
32243;BME280;18731;42.830;24.390;2023-08-08T13:16:47;94585.16;;;22.50;40.51
32243;BME280;18731;42.830;24.390;2023-08-08T13:19:12;94612.28;;;22.57;41.60
32243;BME280;18731;42.830;24.390;2023-08-08T13:21:40;94614.19;;;22.63;42.30
32243;BME280;18731;42.830;24.390;2023-08-08T13:24:06;94608.09;;;22.49;42.66
32243;BME280;18731;42.830;24.390;2023-08-08T13:26:34;94608.03;;;22.56;41.10
32243;BME280;18731;42.830;24.390;2023-08-08T13:28:59;94593.41;;;22.39;42.59
32243;BME280;18731;42.830;24.390;2023-08-08T13:31:25;94592.53;;;22.49;44.79
32243;BME280;18731;42.830;24.390;2023-08-08T13:33:50;94600.56;;;22.67;43.03
32243;BME280;18731;42.830;24.390;2023-08-08T13:36:16;94617.44;;;22.92;43.25
32243;BME280;18731;42.830;24.390;2023-08-08T13:38:42;94611.69;;;22.83;42.82
32243;BME280;18731;42.830;24.390;2023-08-08T13:41:07;94616.38;;;22.83;42.05
32243;BME280;18731;42.830;24.390;2023-08-08T13:43:34;94614.06;;;22.81;43.23
32243;BME280;18731;42.830;24.390;2023-08-08T13:45:59;94613.38;;;22.66;44.11
32243;BME280;18731;42.830;24.390;2023-08-08T13:48:25;94621.34;;;22.43;44.64
32243;BME280;18731;42.830;24.390;2023-08-08T13:50:52;94579.69;;;21.98;44.62
32243;BME280;18731;42.830;24.390;2023-08-08T13:53:18;94623.84;;;22.20;44.97
32243;BME280;18731;42.830;24.390;2023-08-08T13:55:44;94625.88;;;21.98;44.66
32243;BME280;18731;42.830;24.390;2023-08-08T13:58:10;94626.44;;;21.64;45.43
32243;BME280;18731;42.830;24.390;2023-08-08T14:00:35;94603.25;;;21.45;44.08
32243;BME280;18731;42.830;24.390;2023-08-08T14:03:02;94624.88;;;21.70;46.00
32243;BME280;18731;42.830;24.390;2023-08-08T14:05:28;94624.34;;;21.97;46.34
32243;BME280;18731;42.830;24.390;2023-08-08T14:07:54;94622.41;;;21.94;46.59
32243;BME280;18731;42.830;24.390;2023-08-08T14:10:20;94594.72;;;21.40;46.98
32243;BME280;18731;42.830;24.390;2023-08-08T14:12:45;94611.41;;;21.38;46.31
32243;BME280;18731;42.830;24.390;2023-08-08T14:15:11;94624.56;;;21.50;47.09
32243;BME280;18731;42.830;24.390;2023-08-08T14:17:37;94621.06;;;21.54;48.27
32243;BME280;18731;42.830;24.390;2023-08-08T14:20:03;94625.00;;;21.35;48.23
32243;BME280;18731;42.830;24.390;2023-08-08T14:22:30;94624.19;;;21.45;50.44
32243;BME280;18731;42.830;24.390;2023-08-08T14:24:56;94631.91;;;21.57;50.92
32243;BME280;18731;42.830;24.390;2023-08-08T14:27:22;94618.78;;;21.41;50.36
32243;BME280;18731;42.830;24.390;2023-08-08T14:29:48;94619.13;;;21.54;51.01
32243;BME280;18731;42.830;24.390;2023-08-08T14:32:14;94611.38;;;21.49;50.94
32243;BME280;18731;42.830;24.390;2023-08-08T14:34:39;94608.75;;;21.24;51.20
32243;BME280;18731;42.830;24.390;2023-08-08T14:37:05;94635.16;;;20.99;52.03
32243;BME280;18731;42.830;24.390;2023-08-08T14:39:31;94639.38;;;21.17;54.81
32243;BME280;18731;42.830;24.390;2023-08-08T14:41:57;94611.84;;;21.15;53.77
32243;BME280;18731;42.830;24.390;2023-08-08T14:44:23;94619.59;;;21.28;53.50
32243;BME280;18731;42.830;24.390;2023-08-08T14:46:49;94620.44;;;20.93;52.27
32243;BME280;18731;42.830;24.390;2023-08-08T14:49:15;94629.72;;;20.56;52.56
32243;BME280;18731;42.830;24.390;2023-08-08T14:51:40;94631.28;;;20.85;52.94
32243;BME280;18731;42.830;24.390;2023-08-08T14:54:06;94634.38;;;20.70;51.19
32243;BME280;18731;42.830;24.390;2023-08-08T14:56:31;94597.19;;;20.88;50.50
32243;BME280;18731;42.830;24.390;2023-08-08T14:58:57;94615.72;;;21.29;53.37
32243;BME280;18731;42.830;24.390;2023-08-08T15:01:23;94606.00;;;21.35;51.00
32243;BME280;18731;42.830;24.390;2023-08-08T15:03:50;94621.03;;;21.57;45.77
32243;BME280;18731;42.830;24.390;2023-08-08T15:06:16;94619.00;;;21.75;46.23
32243;BME280;18731;42.830;24.390;2023-08-08T15:08:42;94623.78;;;21.46;47.78
32243;BME280;18731;42.830;24.390;2023-08-08T15:11:08;94609.53;;;21.07;50.30
32243;BME280;18731;42.830;24.390;2023-08-08T15:13:34;94626.22;;;21.05;49.13
32243;BME280;18731;42.830;24.390;2023-08-08T15:16:00;94619.66;;;20.89;51.00
32243;BME280;18731;42.830;24.390;2023-08-08T15:18:25;94629.34;;;20.79;53.66
32243;BME280;18731;42.830;24.390;2023-08-08T15:20:51;94615.00;;;20.96;50.36
32243;BME280;18731;42.830;24.390;2023-08-08T15:23:16;94614.16;;;21.17;47.90
32243;BME280;18731;42.830;24.390;2023-08-08T15:25:42;94618.06;;;21.23;50.72
32243;BME280;18731;42.830;24.390;2023-08-08T15:28:09;94587.47;;;20.94;49.07
32243;BME280;18731;42.830;24.390;2023-08-08T15:30:35;94625.06;;;21.06;48.27
32243;BME280;18731;42.830;24.390;2023-08-08T15:33:01;94619.63;;;20.99;50.82
32243;BME280;18731;42.830;24.390;2023-08-08T15:35:26;94627.00;;;21.06;53.71
32243;BME280;18731;42.830;24.390;2023-08-08T15:37:52;94620.44;;;20.93;51.79
32243;BME280;18731;42.830;24.390;2023-08-08T15:40:18;94607.25;;;20.70;50.88
32243;BME280;18731;42.830;24.390;2023-08-08T15:42:43;94635.94;;;20.74;54.14
32243;BME280;18731;42.830;24.390;2023-08-08T15:45:12;94580.91;;;20.13;51.34